Time;durP1;ratioP1;P1;durP2;ratioP2;P2;SDS_P1;SDS_P2;PMS_P1;PMS_P2;Temp;Humidity;BMP_temperature;BMP_pressure;BME280_temperature;BME280_humidity;BME280_pressure;Samples;Min_cycle;Max_cycle;Signal;HPM_P1;HPM_P2
2022/11/20 00:00:19;;;;;;;62.47;51.40;;;;;;;10.53;100.00;100522.91;4985839;28;20047;-86
2022/11/20 00:02:45;;;;;;;68.70;53.03;;;;;;;10.55;100.00;100518.19;4980514;28;20069;-85
2022/11/20 00:05:12;;;;;;;74.57;53.75;;;;;;;10.51;100.00;100520.44;4999559;28;20478;-86
2022/11/20 00:07:39;;;;;;;77.55;58.00;;;;;;;10.58;100.00;100520.41;4997078;28;20046;-86
2022/11/20 00:10:22;;;;;;;75.40;58.53;;;;;;;10.47;100.00;100529.06;4996593;28;20050;-83
2022/11/20 00:12:51;;;;;;;74.07;54.35;;;;;;;10.56;100.00;100530.44;5002441;28;20062;-85
2022/11/20 00:15:19;;;;;;;105.15;60.83;;;;;;;10.67;100.00;100537.75;4992924;28;20061;-86
2022/11/20 00:17:47;;;;;;;96.95;63.80;;;;;;;10.77;100.00;100537.28;4999981;28;20039;-82
2022/11/20 00:20:21;;;;;;;93.30;63.65;;;;;;;10.97;100.00;100526.56;5000016;28;20479;-83
2022/11/20 00:22:47;;;;;;;89.72;60.85;;;;;;;10.89;100.00;100532.97;4995433;28;20105;-82
2022/11/20 00:25:20;;;;;;;102.65;65.18;;;;;;;10.89;100.00;100530.31;5005491;28;20050;-82
2022/11/20 00:27:48;;;;;;;95.22;65.95;;;;;;;10.91;100.00;100525.56;4987524;28;20534;-82
2022/11/20 00:30:15;;;;;;;92.53;62.78;;;;;;;10.87;100.00;100523.56;4987289;28;20046;-82
2022/11/20 00:32:43;;;;;;;93.95;63.17;;;;;;;10.95;100.00;100525.97;4996138;28;20116;-83
2022/11/20 00:35:11;;;;;;;96.40;62.00;;;;;;;10.90;100.00;100531.13;4993720;28;20058;-81
2022/11/20 00:37:40;;;;;;;102.00;65.32;;;;;;;10.97;100.00;100531.88;4988222;28;20479;-82
2022/11/20 00:40:08;;;;;;;98.68;62.95;;;;;;;10.93;100.00;100541.31;5003179;28;20097;-83
2022/11/20 00:42:41;;;;;;;98.35;63.63;;;;;;;11.05;100.00;100538.81;5005106;28;20065;-82
2022/11/20 00:45:09;;;;;;;96.53;64.57;;;;;;;11.03;100.00;100527.56;5004882;28;20403;-83
2022/11/20 00:47:37;;;;;;;101.70;63.30;;;;;;;11.03;100.00;100535.53;5000091;28;20042;-82
2022/11/20 00:50:10;;;;;;;114.18;73.82;;;;;;;11.15;100.00;100524.00;5004625;28;20073;-82
2022/11/20 00:52:43;;;;;;;100.82;65.88;;;;;;;11.11;100.00;100533.44;5000760;28;20105;-83
2022/11/20 00:55:11;;;;;;;194.23;101.60;;;;;;;11.21;100.00;100523.16;5001497;28;20058;-83
2022/11/20 00:57:38;;;;;;;102.60;66.10;;;;;;;11.11;100.00;100519.34;4996851;28;20093;-83
2022/11/20 01:02:49;;;;;;;103.80;64.27;;;;;;;11.14;100.00;100508.28;5074709;22;20115;-82
2022/11/20 01:05:21;;;;;;;96.80;63.22;;;;;;;11.15;100.00;100492.09;5036626;28;20041;-86
2022/11/20 01:07:48;;;;;;;107.88;68.72;;;;;;;11.03;100.00;100495.69;5051514;28;20507;-84
2022/11/20 01:10:22;;;;;;;106.70;66.85;;;;;;;11.02;100.00;100486.91;5053100;28;20392;-83
2022/11/20 01:13:36;;;;;;;113.88;71.90;;;;;;;11.15;100.00;100475.34;5035423;28;20053;-84
2022/11/20 01:15:38;;;;;;;104.55;64.22;;;;;;;11.12;100.00;100484.56;5027719;28;20054;-81
2022/11/20 01:18:06;;;;;;;105.05;68.32;;;;;;;11.16;100.00;100466.34;5042215;28;20107;-85
2022/11/20 01:20:36;;;;;;;104.40;63.60;;;;;;;11.10;100.00;100468.00;5049827;28;20183;-85
2022/11/20 01:23:18;;;;;;;99.63;63.63;;;;;;;11.17;100.00;100462.66;5036314;28;20485;-84
2022/11/20 01:25:58;;;;;;;97.80;63.58;;;;;;;11.21;100.00;100467.31;5043222;28;20143;-86
2022/11/20 01:28:33;;;;;;;90.53;61.55;;;;;;;11.12;100.00;100457.19;5053088;28;20052;-84
2022/11/20 01:31:13;;;;;;;101.80;64.55;;;;;;;11.08;100.00;100456.00;5052390;28;20087;-85
2022/11/20 01:33:42;;;;;;;103.80;63.50;;;;;;;11.16;100.00;100455.72;5057770;28;20053;-85
2022/11/20 01:36:14;;;;;;;93.82;58.85;;;;;;;11.21;100.00;100466.50;5043909;28;20123;-84
2022/11/20 01:38:44;;;;;;;99.35;63.60;;;;;;;11.20;100.00;100463.03;5035662;28;20472;-85
2022/11/20 01:44:01;;;;;;;92.70;59.60;;;;;;;11.11;100.00;100456.38;5034196;28;20053;-84
2022/11/20 01:46:39;;;;;;;92.93;61.22;;;;;;;11.24;100.00;100453.59;5045123;28;20102;-85
2022/11/20 01:49:17;;;;;;;104.57;64.75;;;;;;;11.21;100.00;100446.06;5038437;28;20057;-84
2022/11/20 01:51:51;;;;;;;94.65;62.22;;;;;;;11.15;100.00;100462.88;5036086;28;20046;-84
2022/11/20 01:54:26;;;;;;;95.57;61.60;;;;;;;11.20;100.00;100464.91;5040132;28;20060;-87
2022/11/20 01:57:00;;;;;;;96.38;63.00;;;;;;;11.29;100.00;100457.47;5042776;28;20107;-83
2022/11/20 01:59:30;;;;;;;97.22;62.33;;;;;;;11.30;100.00;100477.69;5034619;28;20096;-82
2022/11/20 02:02:03;;;;;;;89.47;60.50;;;;;;;11.29;100.00;100473.44;5022314;28;20057;-84
2022/11/20 02:04:29;;;;;;;91.82;59.63;;;;;;;11.21;100.00;100462.00;5021438;28;20050;-80
2022/11/20 02:07:01;;;;;;;86.97;59.08;;;;;;;11.26;100.00;100460.56;5024876;28;20512;-82
2022/11/20 02:09:28;;;;;;;88.80;60.25;;;;;;;11.23;100.00;100461.81;5028925;28;20053;-83
2022/11/20 02:11:58;;;;;;;87.63;61.40;;;;;;;11.24;100.00;100463.41;5035173;28;20049;-83
2022/11/20 02:14:25;;;;;;;100.90;62.03;;;;;;;11.17;100.00;100447.53;5036555;28;20390;-83
2022/11/20 02:16:53;;;;;;;89.22;60.17;;;;;;;11.26;100.00;100436.63;5026873;28;20102;-83
2022/11/20 02:19:25;;;;;;;87.32;58.40;;;;;;;11.33;100.00;100443.50;5026751;28;20053;-83
2022/11/20 02:22:03;;;;;;;93.30;60.60;;;;;;;11.37;100.00;100439.38;5033358;28;20077;-83
2022/11/20 02:24:32;;;;;;;92.43;60.22;;;;;;;11.30;100.00;100448.47;5034733;28;20057;-85
2022/11/20 02:27:03;;;;;;;91.63;60.13;;;;;;;11.33;100.00;100448.03;5034610;28;20409;-85
2022/11/20 02:29:36;;;;;;;95.95;63.08;;;;;;;11.29;100.00;100437.00;5029090;28;20123;-85
2022/11/20 02:32:22;;;;;;;120.18;80.47;;;;;;;11.30;100.00;100430.66;5028298;28;20107;-86
2022/11/20 02:34:50;;;;;;;114.45;71.97;;;;;;;11.31;100.00;100428.81;5023885;28;20053;-84
2022/11/20 02:37:29;;;;;;;99.15;65.40;;;;;;;11.28;100.00;100418.59;5015042;28;20045;-85
2022/11/20 02:40:11;;;;;;;102.35;64.63;;;;;;;11.27;100.00;100422.31;5024294;28;20049;-85
2022/11/20 02:42:39;;;;;;;102.72;63.60;;;;;;;11.39;100.00;100412.59;5029102;28;20045;-85
2022/11/20 02:45:14;;;;;;;98.28;61.20;;;;;;;11.29;100.00;100420.25;5034302;28;20076;-85
2022/11/20 02:47:53;;;;;;;106.38;65.07;;;;;;;11.29;100.00;100415.75;5049019;28;20390;-85
2022/11/20 02:50:21;;;;;;;101.40;64.78;;;;;;;11.26;100.00;100413.53;5045791;28;20060;-85
2022/11/20 02:52:48;;;;;;;99.30;62.78;;;;;;;11.26;100.00;100416.19;5024658;28;20049;-84
2022/11/20 02:55:17;;;;;;;94.25;59.83;;;;;;;11.33;100.00;100403.63;5022502;28;20084;-83
2022/11/20 02:57:44;;;;;;;92.97;61.05;;;;;;;11.15;100.00;100401.72;5037649;28;20046;-83
2022/11/20 03:00:13;;;;;;;87.10;58.95;;;;;;;10.99;100.00;100411.06;5033404;28;20060;-83
2022/11/20 03:02:46;;;;;;;84.38;56.05;;;;;;;11.02;100.00;100398.38;5021636;28;20088;-86
2022/11/20 03:05:20;;;;;;;89.40;61.25;;;;;;;10.90;100.00;100404.38;5032874;28;20045;-86
2022/11/20 03:07:53;;;;;;;84.40;58.78;;;;;;;10.74;100.00;100403.06;5027392;28;20093;-85
2022/11/20 03:10:27;;;;;;;88.90;59.60;;;;;;;10.79;100.00;100399.75;5031304;28;20049;-85
2022/11/20 03:12:57;;;;;;;78.25;53.70;;;;;;;10.83;100.00;100406.25;5032848;28;20045;-86
2022/11/20 03:15:26;;;;;;;88.13;56.20;;;;;;;10.78;100.00;100401.59;5019023;28;20038;-86
2022/11/20 03:18:00;;;;;;;85.72;59.08;;;;;;;10.65;100.00;100390.25;5028306;28;20049;-85
2022/11/20 03:20:44;;;;;;;85.57;59.13;;;;;;;10.81;100.00;100396.91;5037464;28;20053;-85
2022/11/20 03:23:11;;;;;;;79.75;55.80;;;;;;;10.49;100.00;100402.19;5033948;28;20056;-86
2022/11/20 03:25:39;;;;;;;82.15;55.50;;;;;;;10.44;100.00;100399.34;5023944;28;20049;-85
2022/11/20 03:28:13;;;;;;;85.63;61.92;;;;;;;10.29;100.00;100405.75;5033494;28;20110;-85
2022/11/20 03:30:57;;;;;;;81.20;54.50;;;;;;;10.33;100.00;100400.84;5024169;28;20474;-85
2022/11/20 03:33:25;;;;;;;79.38;56.70;;;;;;;10.25;100.00;100406.34;5033712;28;20386;-85
2022/11/20 03:35:53;;;;;;;73.05;51.60;;;;;;;10.21;100.00;100407.81;5034668;28;20053;-85
2022/11/20 03:38:22;;;;;;;78.55;55.67;;;;;;;10.07;100.00;100402.53;5026961;28;20425;-85
2022/11/20 03:40:51;;;;;;;77.05;53.63;;;;;;;9.98;100.00;100426.88;5041845;28;20049;-86
2022/11/20 03:43:47;;;;;;;76.95;53.67;;;;;;;9.92;100.00;100423.22;5034470;28;20218;-86
2022/11/20 03:46:17;;;;;;;80.95;56.10;;;;;;;9.89;100.00;100420.97;5030024;28;20437;-85
2022/11/20 03:48:51;;;;;;;71.15;51.97;;;;;;;9.88;100.00;100421.19;5032804;28;20107;-84
2022/11/20 03:51:28;;;;;;;73.45;54.88;;;;;;;9.82;100.00;100413.03;5033473;28;20464;-85
2022/11/20 03:53:58;;;;;;;81.50;58.75;;;;;;;9.79;100.00;100429.38;5024414;28;20042;-85
2022/11/20 03:56:28;;;;;;;85.38;58.60;;;;;;;9.76;100.00;100432.44;5037753;28;20030;-85
2022/11/20 03:59:03;;;;;;;73.32;52.45;;;;;;;9.71;100.00;100420.81;5033572;28;20056;-85
2022/11/20 04:01:32;;;;;;;79.85;56.75;;;;;;;9.57;100.00;100428.81;5039392;28;20049;-86
2022/11/20 04:04:17;;;;;;;76.40;53.65;;;;;;;9.53;100.00;100426.75;5045305;28;20076;-87
2022/11/20 04:06:56;;;;;;;77.78;56.70;;;;;;;9.34;100.00;100433.72;5053973;28;20049;-86
2022/11/20 04:09:25;;;;;;;78.88;52.80;;;;;;;9.13;100.00;100434.72;5031877;28;20111;-83
2022/11/20 04:11:53;;;;;;;76.90;54.50;;;;;;;9.22;100.00;100444.09;5031286;28;20050;-84
2022/11/20 04:14:20;;;;;;;73.68;52.10;;;;;;;9.12;100.00;100443.69;5021186;28;20053;-84
2022/11/20 04:16:51;;;;;;;79.97;56.83;;;;;;;8.97;100.00;100459.78;5033155;28;20045;-83
2022/11/20 04:19:33;;;;;;;74.65;52.08;;;;;;;8.86;100.00;100458.53;5029501;28;20045;-83
2022/11/20 04:22:02;;;;;;;81.63;55.67;;;;;;;8.92;100.00;100470.16;5037912;28;20065;-86
2022/11/20 04:24:30;;;;;;;84.15;55.88;;;;;;;8.91;100.00;100469.34;5059266;28;20041;-86
2022/11/20 04:27:12;;;;;;;79.97;55.30;;;;;;;8.88;100.00;100475.03;5044898;28;20048;-85
2022/11/20 04:29:41;;;;;;;85.30;57.90;;;;;;;8.78;100.00;100466.69;5016044;28;20050;-85
2022/11/20 04:32:21;;;;;;;83.55;55.85;;;;;;;8.67;100.00;100459.31;5030634;28;20068;-85
2022/11/20 04:35:00;;;;;;;93.57;54.13;;;;;;;8.70;100.00;100446.47;5018432;28;20401;-86
2022/11/20 04:37:27;;;;;;;79.72;54.20;;;;;;;8.55;100.00;100453.75;5033762;28;20123;-86
2022/11/20 04:39:54;;;;;;;82.07;55.30;;;;;;;8.59;100.00;100449.69;5056726;28;20029;-85
2022/11/20 04:42:32;;;;;;;89.95;55.75;;;;;;;8.67;100.00;100449.53;5060559;28;20042;-85
2022/11/20 04:45:02;;;;;;;81.10;55.33;;;;;;;8.64;100.00;100449.91;5048704;28;20045;-86
2022/11/20 04:47:45;;;;;;;84.35;54.00;;;;;;;8.60;100.00;100454.00;5052289;28;20037;-88
2022/11/20 04:50:13;;;;;;;;;;;;;;;8.71;100.00;100452.59;5048373;28;20063;-85
2022/11/20 04:52:51;;;;;;;91.43;58.03;;;;;;;8.74;100.00;100454.03;5058811;28;19924;-85
2022/11/20 04:55:26;;;;;;;85.40;56.42;;;;;;;8.75;100.00;100458.31;5049657;28;20034;-86
2022/11/20 04:57:55;;;;;;;81.65;55.38;;;;;;;8.70;100.00;100474.78;5042575;28;20126;-83
2022/11/20 05:00:22;;;;;;;86.13;56.05;;;;;;;8.68;100.00;100456.47;5029168;28;20053;-83
2022/11/20 05:02:51;;;;;;;81.05;55.40;;;;;;;8.53;100.00;100455.78;5035472;28;20061;-83
2022/11/20 05:05:19;;;;;;;90.68;57.38;;;;;;;8.47;100.00;100456.56;5035831;28;20049;-83
2022/11/20 05:07:50;;;;;;;86.70;57.55;;;;;;;8.56;100.00;100451.94;5042865;28;20049;-83
2022/11/20 05:10:17;;;;;;;88.97;60.38;;;;;;;8.68;100.00;100460.91;5042238;28;20053;-83
2022/11/20 05:12:44;;;;;;;87.55;60.47;;;;;;;8.46;100.00;100455.75;5027421;28;20050;-83
2022/11/20 05:15:13;;;;;;;90.22;59.58;;;;;;;8.36;100.00;100459.78;5029477;28;20045;-83
2022/11/20 05:17:48;;;;;;;81.68;58.33;;;;;;;8.48;100.00;100460.88;5035398;28;20060;-83
2022/11/20 05:20:15;;;;;;;81.93;56.25;;;;;;;8.49;100.00;100460.66;5035234;28;20045;-84
2022/11/20 05:22:43;;;;;;;149.55;87.18;;;;;;;8.63;100.00;100456.25;5018566;28;20092;-84
2022/11/20 05:25:13;;;;;;;95.30;59.88;;;;;;;8.57;100.00;100461.53;5035839;28;20162;-84
2022/11/20 05:28:09;;;;;;;82.55;57.60;;;;;;;8.64;100.00;100459.69;5033794;28;20049;-85
2022/11/20 05:30:57;;;;;;;84.15;55.17;;;;;;;8.73;100.00;100460.34;5050981;28;20034;-86
2022/11/20 05:33:29;;;;;;;79.68;56.38;;;;;;;8.66;100.00;100471.72;5041816;28;20049;-83
2022/11/20 05:35:59;;;;;;;96.70;61.10;;;;;;;8.60;100.00;100471.72;5035297;28;20421;-84
2022/11/20 05:38:27;;;;;;;108.50;66.45;;;;;;;8.54;100.00;100496.34;5033459;28;20299;-83
2022/11/20 05:40:53;;;;;;;111.80;66.78;;;;;;;8.53;100.00;100532.56;5029463;28;20110;-84
2022/11/20 05:43:32;;;;;;;71.28;48.72;;;;;;;8.79;100.00;100549.56;5025702;28;20111;-85
2022/11/20 05:46:01;;;;;;;75.88;54.72;;;;;;;8.76;100.00;100540.19;5020818;28;20046;-87
2022/11/20 05:48:35;;;;;;;80.75;55.42;;;;;;;8.51;100.00;100545.19;5050418;28;20531;-86
2022/11/20 05:51:05;;;;;;;82.97;60.17;;;;;;;8.53;100.00;100529.91;5033155;28;20046;-86
2022/11/20 05:53:38;;;;;;;87.45;57.35;;;;;;;8.21;100.00;100534.81;5035720;28;20115;-83
2022/11/20 05:56:08;;;;;;;90.93;59.20;;;;;;;8.31;100.00;100549.53;5024916;28;20045;-84
2022/11/20 05:58:34;;;;;;;97.00;63.30;;;;;;;8.31;100.00;100560.09;5035264;28;20498;-83
2022/11/20 06:01:08;;;;;;;108.57;71.03;;;;;;;8.31;100.00;100557.47;5021231;28;20058;-83
2022/11/20 06:03:37;;;;;;;99.95;62.45;;;;;;;8.41;100.00;100573.81;5028417;28;20053;-82
2022/11/20 06:06:05;;;;;;;103.35;65.75;;;;;;;8.24;100.00;100584.69;5029854;28;20046;-84
2022/11/20 06:08:32;;;;;;;99.53;59.95;;;;;;;8.03;100.00;100574.16;5022146;28;20050;-82
2022/11/20 06:11:04;;;;;;;103.07;64.13;;;;;;;7.99;100.00;100580.88;5031493;28;20107;-82
2022/11/20 06:13:31;;;;;;;106.55;64.35;;;;;;;7.99;100.00;100589.63;5053822;28;20049;-85
2022/11/20 06:15:59;;;;;;;118.15;65.25;;;;;;;8.06;100.00;100591.50;5072752;28;20049;-86
2022/11/20 06:18:36;;;;;;;111.43;66.63;;;;;;;8.02;100.00;100593.72;5042786;28;20045;-85
2022/11/20 06:21:09;;;;;;;115.53;64.97;;;;;;;8.03;100.00;100605.91;5033298;28;20042;-84
2022/11/20 06:23:38;;;;;;;106.53;61.80;;;;;;;7.87;100.00;100622.88;5028254;28;20049;-86
2022/11/20 06:26:14;;;;;;;116.60;62.05;;;;;;;7.77;100.00;100635.59;5029008;28;20041;-83
2022/11/20 06:28:45;;;;;;;99.55;58.03;;;;;;;7.70;100.00;100640.81;5034770;28;20049;-84
2022/11/20 06:31:23;;;;;;;109.28;62.05;;;;;;;7.74;100.00;100630.69;5033739;28;20046;-83
2022/11/20 06:33:55;;;;;;;112.80;62.22;;;;;;;7.71;100.00;100645.09;5032570;28;20571;-83
2022/11/20 06:36:35;;;;;;;112.25;61.97;;;;;;;7.82;100.00;100656.19;5026200;28;20053;-82
2022/11/20 06:39:03;;;;;;;104.25;60.72;;;;;;;7.51;100.00;100663.41;5034618;28;20103;-85
2022/11/20 06:41:40;;;;;;;106.00;58.17;;;;;;;7.54;100.00;100670.97;5033892;28;20041;-84
2022/11/20 06:44:07;;;;;;;103.72;60.70;;;;;;;7.68;100.00;100681.66;5032762;28;20044;-85
2022/11/20 06:46:34;;;;;;;96.75;57.33;;;;;;;7.72;100.00;100683.75;5034011;28;20520;-85
2022/11/20 06:49:09;;;;;;;97.60;59.85;;;;;;;7.72;100.00;100702.25;5022155;28;20115;-85
2022/11/20 06:51:41;;;;;;;86.95;56.30;;;;;;;7.48;100.00;100706.06;5035528;28;20127;-85
2022/11/20 06:54:09;;;;;;;83.50;55.20;;;;;;;7.32;100.00;100715.03;5032722;28;20111;-84
2022/11/20 06:56:42;;;;;;;90.20;55.97;;;;;;;7.61;100.00;100728.38;5031904;28;20046;-85
2022/11/20 06:59:10;;;;;;;89.80;52.50;;;;;;;7.68;100.00;100753.84;5030539;28;20041;-86
2022/11/20 07:01:37;;;;;;;89.25;52.30;;;;;;;7.76;100.00;100753.75;5028604;28;20065;-86
2022/11/20 07:04:05;;;;;;;76.45;50.00;;;;;;;7.57;100.00;100763.09;5030436;28;20045;-85
2022/11/20 07:06:34;;;;;;;71.47;48.63;;;;;;;7.58;100.00;100770.00;5030700;28;20228;-81
2022/11/20 07:09:06;;;;;;;67.88;49.67;;;;;;;7.82;100.00;100760.13;5029934;28;20053;-82
2022/11/20 07:11:34;;;;;;;77.32;49.17;;;;;;;7.52;100.00;100754.06;5029005;28;20061;-82
2022/11/20 07:14:08;;;;;;;81.72;50.17;;;;;;;7.40;100.00;100750.28;5027474;28;20045;-82
2022/11/20 07:16:36;;;;;;;80.63;49.72;;;;;;;7.58;100.00;100748.88;5032040;28;20072;-82
2022/11/20 07:19:05;;;;;;;81.88;51.10;;;;;;;7.61;100.00;100742.38;5028509;28;20087;-82
2022/11/20 07:21:33;;;;;;;81.18;49.85;;;;;;;7.28;100.00;100745.44;5025572;28;20049;-82
2022/11/20 07:24:01;;;;;;;73.85;46.88;;;;;;;7.38;100.00;100757.56;5028992;28;20126;-82
2022/11/20 07:26:28;;;;;;;63.22;45.40;;;;;;;7.47;100.00;100764.38;5027027;28;20064;-82
2022/11/20 07:28:55;;;;;;;67.32;48.22;;;;;;;7.43;100.00;100766.56;5029644;28;20050;-81
2022/11/20 07:31:31;;;;;;;74.50;47.47;;;;;;;7.53;100.00;100768.91;5029902;28;20375;-83
2022/11/20 07:33:58;;;;;;;71.43;47.05;;;;;;;7.31;100.00;100749.53;5029587;28;20050;-86
2022/11/20 07:36:25;;;;;;;71.65;48.10;;;;;;;7.19;100.00;100766.84;5028225;28;20046;-85
2022/11/20 07:39:07;;;;;;;71.25;48.92;;;;;;;7.17;100.00;100782.06;5030347;28;20046;-85
2022/11/20 07:41:41;;;;;;;59.75;47.20;;;;;;;7.45;100.00;100780.44;5029204;28;20128;-83
2022/11/20 07:44:09;;;;;;;77.43;49.50;;;;;;;7.43;100.00;100763.13;5030211;28;20962;-85
2022/11/20 07:46:37;;;;;;;68.20;47.67;;;;;;;7.31;100.00;100757.47;5028391;28;21704;-85
2022/11/20 07:49:09;;;;;;;85.93;52.03;;;;;;;7.30;100.00;100764.59;5045472;28;20131;-84
2022/11/20 07:51:36;;;;;;;82.45;52.60;;;;;;;7.44;100.00;100777.94;5040931;28;20049;-86
2022/11/20 07:54:03;;;;;;;80.55;51.13;;;;;;;7.48;100.00;100768.69;5039410;28;20049;-85
2022/11/20 07:56:40;;;;;;;77.80;50.10;;;;;;;7.45;100.00;100772.50;5036123;28;20041;-85
2022/11/20 07:59:11;;;;;;;77.55;55.08;;;;;;;7.45;100.00;100795.47;5037912;28;20057;-86
2022/11/20 08:01:38;;;;;;;95.45;59.42;;;;;;;7.50;100.00;100787.78;5038182;28;20061;-84
2022/11/20 08:04:06;;;;;;;83.13;55.92;;;;;;;7.63;100.00;100777.41;5036016;28;20057;-84
2022/11/20 08:06:34;;;;;;;72.38;50.65;;;;;;;7.36;100.00;100768.31;5039073;28;20394;-86
2022/11/20 08:09:12;;;;;;;80.00;51.22;;;;;;;7.55;100.00;100761.63;5046630;28;20049;-85
2022/11/20 08:14:28;;;;;;;93.80;62.03;;;;;;;7.46;100.00;100746.88;5032694;28;20052;-81
2022/11/20 08:16:55;;;;;;;128.48;66.22;;;;;;;7.45;100.00;100771.69;5025044;28;20052;-82
2022/11/20 08:19:22;;;;;;;353.23;153.23;;;;;;;7.69;100.00;100757.34;5030014;28;20478;-81
2022/11/20 08:21:50;;;;;;;236.43;114.05;;;;;;;7.38;100.00;100745.16;5033219;28;20056;-81
2022/11/20 08:24:17;;;;;;;89.50;58.35;;;;;;;7.53;100.00;100745.13;5035642;28;20061;-82
2022/11/20 08:26:45;;;;;;;177.85;95.68;;;;;;;7.39;100.00;100746.81;5035286;28;20045;-84
2022/11/20 08:29:27;;;;;;;166.40;95.40;;;;;;;7.48;100.00;100750.19;5037923;28;20049;-86
2022/11/20 08:31:56;;;;;;;138.93;83.28;;;;;;;7.51;100.00;100741.88;5042570;28;20025;-85
2022/11/20 08:34:25;;;;;;;108.15;68.93;;;;;;;7.36;100.00;100739.25;5047586;28;20123;-85
2022/11/20 08:36:51;;;;;;;97.18;67.60;;;;;;;7.33;100.00;100732.50;5034224;28;20140;-83
2022/11/20 08:39:24;;;;;;;99.47;67.13;;;;;;;7.36;100.00;100744.53;5042431;28;20057;-83
2022/11/20 08:41:53;;;;;;;;;;;;;;;7.45;100.00;100726.75;5037560;28;20049;-84
2022/11/20 08:44:22;;;;;;;93.07;65.55;;;;;;;7.35;100.00;100719.09;5036995;28;20349;-84
2022/11/20 08:46:51;;;;;;;93.82;62.78;;;;;;;7.51;100.00;100718.91;5027216;28;20515;-85
2022/11/20 08:49:24;;;;;;;142.35;86.68;;;;;;;7.65;100.00;100719.84;5035313;28;20049;-85
2022/11/20 08:51:54;;;;;;;186.95;97.90;;;;;;;7.73;100.00;100740.91;5031296;28;20060;-84
2022/11/20 08:54:30;;;;;;;76.72;48.53;;;;;;;7.47;100.00;100756.44;5029126;28;20053;-84
2022/11/20 08:57:04;;;;;;;185.13;102.38;;;;;;;7.58;100.00;100753.34;5039264;28;20111;-86
2022/11/20 09:00:01;;;;;;;82.43;52.03;;;;;;;7.58;100.00;100740.94;5044599;28;20057;-87
2022/11/20 09:02:37;;;;;;;73.60;48.33;;;;;;;7.58;100.00;100738.28;4960888;28;20132;-84
2022/11/20 09:05:28;;;;;;;131.38;78.85;;;;;;;7.55;100.00;100738.66;5025654;28;20099;-86
2022/11/20 09:08:07;;;;;;;144.20;84.65;;;;;;;7.52;100.00;100739.03;5030890;28;20049;-85
2022/11/20 09:10:42;;;;;;;104.80;67.13;;;;;;;7.61;100.00;100733.66;5035543;28;20050;-86
2022/11/20 09:13:15;;;;;;;87.85;54.58;;;;;;;7.64;100.00;100735.91;5027123;28;20050;-87
2022/11/20 09:15:42;;;;;;;69.05;50.03;;;;;;;7.66;100.00;100734.72;5032666;28;20049;-83
2022/11/20 09:18:11;;;;;;;81.60;49.08;;;;;;;7.86;100.00;100749.97;5037379;28;20081;-85
2022/11/20 09:20:37;;;;;;;71.40;49.75;;;;;;;7.94;100.00;100747.22;5043050;28;20124;-85
2022/11/20 09:23:21;;;;;;;70.03;51.70;;;;;;;7.99;100.00;100740.38;5021823;28;20046;-85
2022/11/20 09:25:50;;;;;;;84.57;57.92;;;;;;;7.99;100.00;100735.09;5038241;28;20041;-84
2022/11/20 09:28:26;;;;;;;78.68;57.88;;;;;;;8.06;100.00;100729.84;5027388;28;20490;-84
2022/11/20 09:30:55;;;;;;;74.90;56.33;;;;;;;8.08;100.00;100705.84;5040840;28;20083;-81
2022/11/20 09:33:24;;;;;;;257.35;143.05;;;;;;;8.17;100.00;100708.19;5054389;28;20060;-85
2022/11/20 09:35:52;;;;;;;85.65;64.05;;;;;;;8.11;100.00;100698.38;5037253;28;20053;-81
2022/11/20 09:38:20;;;;;;;83.95;55.60;;;;;;;8.14;100.00;100689.22;5037006;28;20088;-84
2022/11/20 09:40:58;;;;;;;131.70;77.57;;;;;;;8.12;100.00;100692.06;5012982;28;20040;-83
2022/11/20 09:43:52;;;;;;;74.05;50.83;;;;;;;8.33;100.00;100690.41;5048223;28;20455;-85
2022/11/20 09:46:29;;;;;;;149.57;86.38;;;;;;;8.20;100.00;100691.94;5055924;28;20052;-83
2022/11/20 09:49:14;;;;;;;85.82;58.38;;;;;;;8.32;100.00;100676.38;5043191;28;20132;-83
2022/11/20 09:51:51;;;;;;;74.50;58.83;;;;;;;8.31;100.00;100676.53;5048705;28;20056;-83
2022/11/20 09:54:20;;;;;;;76.68;53.65;;;;;;;8.23;100.00;100659.81;5016536;28;20057;-81
2022/11/20 09:56:57;;;;;;;74.97;52.95;;;;;;;8.40;100.00;100656.88;5026724;28;20038;-82
2022/11/20 09:59:39;;;;;;;81.28;56.55;;;;;;;8.46;100.00;100648.19;5028533;28;20045;-81
2022/11/20 10:02:26;;;;;;;89.57;64.30;;;;;;;8.46;100.00;100632.28;5018871;28;20461;-83
2022/11/20 10:04:58;;;;;;;69.80;55.95;;;;;;;8.54;100.00;100626.84;5053953;28;20052;-83
2022/11/20 10:07:31;;;;;;;62.38;48.00;;;;;;;8.42;100.00;100629.22;5051822;28;20183;-86
2022/11/20 10:09:58;;;;;;;104.75;71.30;;;;;;;8.63;100.00;100632.81;5039561;28;20045;-83
2022/11/20 10:12:38;;;;;;;65.30;51.35;;;;;;;8.64;100.00;100642.38;5033783;28;20042;-82
2022/11/20 10:15:21;;;;;;;60.78;50.85;;;;;;;8.67;100.00;100652.59;5022195;28;20108;-82
2022/11/20 10:18:03;;;;;;;67.35;53.05;;;;;;;8.65;100.00;100659.91;5040169;28;20052;-82
2022/11/20 10:20:41;;;;;;;64.35;49.42;;;;;;;8.61;100.00;100658.66;5031449;28;20523;-82
2022/11/20 10:23:31;;;;;;;72.15;55.30;;;;;;;8.68;100.00;100657.69;5030812;28;20041;-83
2022/11/20 10:26:03;;;;;;;67.28;51.15;;;;;;;8.79;100.00;100663.44;5030054;28;20045;-80
2022/11/20 10:28:44;;;;;;;68.95;51.28;;;;;;;8.69;100.00;100667.28;5032313;28;20197;-81
2022/11/20 10:31:22;;;;;;;62.75;50.72;;;;;;;8.95;100.00;100665.78;5031035;28;20045;-83
2022/11/20 10:33:53;;;;;;;56.78;46.58;;;;;;;8.75;100.00;100670.97;5023235;28;20046;-81
2022/11/20 10:36:24;;;;;;;61.70;50.47;;;;;;;9.04;100.00;100658.47;5022555;28;20054;-82
2022/11/20 10:39:00;;;;;;;63.40;52.05;;;;;;;9.02;100.00;100656.03;5031510;28;20123;-82
2022/11/20 10:41:31;;;;;;;62.65;50.70;;;;;;;8.78;100.00;100654.69;5030490;28;20107;-83
2022/11/20 10:44:04;;;;;;;61.28;48.10;;;;;;;9.23;100.00;100673.66;5031562;28;20180;-84
2022/11/20 10:46:44;;;;;;;66.38;49.75;;;;;;;8.95;100.00;100682.47;5026881;28;20409;-84
2022/11/20 10:49:15;;;;;;;60.88;48.78;;;;;;;9.28;100.00;100688.94;5036305;28;20108;-84
2022/11/20 10:51:54;;;;;;;62.60;52.17;;;;;;;9.37;100.00;100693.06;5037795;28;20048;-82
2022/11/20 10:54:33;;;;;;;59.53;47.35;;;;;;;9.22;100.00;100697.69;5032667;28;20144;-85
2022/11/20 10:57:11;;;;;;;71.75;62.85;;;;;;;9.39;100.00;100689.19;5033607;28;20084;-80
2022/11/20 11:00:02;;;;;;;77.05;63.58;;;;;;;9.46;100.00;100689.22;5018040;28;20107;-84
2022/11/20 11:02:42;;;;;;;89.75;67.25;;;;;;;9.12;100.00;100685.63;5039550;28;20623;-85
2022/11/20 11:05:35;;;;;;;70.53;60.13;;;;;;;10.81;100.00;100691.78;5034136;28;20088;-83
2022/11/20 11:08:06;;;;;;;76.65;59.03;;;;;;;9.37;100.00;100701.00;5034909;28;20110;-82
2022/11/20 11:10:41;;;;;;;83.70;64.18;;;;;;;9.38;100.00;100698.19;5033056;28;20051;-83
2022/11/20 11:13:21;;;;;;;90.57;65.45;;;;;;;9.29;100.00;100693.22;5028075;28;20120;-83
2022/11/20 11:15:52;;;;;;;98.20;70.35;;;;;;;9.30;100.00;100690.41;5030113;28;20050;-82
2022/11/20 11:18:29;;;;;;;95.80;66.77;;;;;;;9.44;100.00;100687.78;5027392;28;20057;-83
2022/11/20 11:20:58;;;;;;;99.03;67.95;;;;;;;9.34;100.00;100704.06;5029354;28;20131;-82
2022/11/20 11:23:34;;;;;;;108.95;73.43;;;;;;;9.38;100.00;100695.53;5035356;28;20053;-83
2022/11/20 11:26:04;;;;;;;93.40;68.57;;;;;;;9.32;100.00;100698.13;5034250;28;20057;-82
2022/11/20 11:28:39;;;;;;;90.22;65.03;;;;;;;9.35;100.00;100687.16;5015394;28;20049;-82
2022/11/20 11:31:09;;;;;;;84.38;60.72;;;;;;;9.37;100.00;100682.47;5026041;28;20057;-82
2022/11/20 11:33:43;;;;;;;106.88;72.57;;;;;;;9.45;100.00;100682.28;5025734;28;20049;-83
2022/11/20 11:36:21;;;;;;;116.88;79.57;;;;;;;9.40;100.00;100684.72;5033697;28;20045;-83